Terminal Aerodrome Forecast
Issued by NWS

Home | Current Version | Previous Version | Text Only | Print | Product List | Glossary Off
Versions: 1 2 3 4 5 6 7 8 9 10 11 12 13 14 15 16 17

000
FTUS43 KMPX 042331
TAFRWF
TAF
KRWF 042331Z 0500/0524 32012G19KT P6SM SCT030
      TEMPO 0500/0501 3SM -SN BKN025
     FM050200 31008KT P6SM SKC
     FM050800 27005KT P6SM SKC
     FM051500 20008KT P6SM SKC=

USA.gov is the U.S. government's official web portal to all federal, state and local government web resources and services.